Terminal Aerodrome Forecast
Issued by NWS La Crosse, WI

Home | Current Version | Previous Version | Text Only | Print | Product List | Glossary On
Versions: 1 2 3 4 5 6 7 8 9 10 11 12 13 14 15 16 17 18 19 20 21 22 23 24 25 26 27 28 29 30 31 32 33 34 35 36 37 38 39 40 41 42 43 44 45
000
FTUS43 KARX 292302 AAC
TAFRST
TAF AMD
KRST 292302Z 2923/3018 23005KT P6SM SCT015 BKN035
      TEMPO 2923/3003 3/4SM +TSRA BR OVC020CB
     FM300300 26004KT 3SM -SHRA BR OVC012
     FM300800 29005KT 1SM BR OVC006
     FM301600 31006KT 3SM BR OVC015=

USA.gov is the U.S. government's official web portal to all federal, state and local government web resources and services.